sensor_id;sensor_type;location;lat;lon;timestamp;pressure;altitude;pressure_sealevel;temperature;humidity
68654;BME280;55636;51.108;13.622;2024-02-15T00:00:29;100663.31;;;10.42;59.61
68654;BME280;55636;51.108;13.622;2024-02-15T00:01:32;100660.81;;;10.41;59.34
68654;BME280;55636;51.108;13.622;2024-02-15T00:02:35;100659.97;;;10.40;59.58
68654;BME280;55636;51.108;13.622;2024-02-15T00:03:37;100663.81;;;10.39;59.49
68654;BME280;55636;51.108;13.622;2024-02-15T00:04:52;100659.38;;;10.38;59.30
68654;BME280;55636;51.108;13.622;2024-02-15T00:05:54;100664.63;;;10.40;59.33
68654;BME280;55636;51.108;13.622;2024-02-15T00:06:56;100660.22;;;10.39;59.27
68654;BME280;55636;51.108;13.622;2024-02-15T00:07:59;100655.78;;;10.38;59.44
68654;BME280;55636;51.108;13.622;2024-02-15T00:09:01;100665.16;;;10.36;59.46
68654;BME280;55636;51.108;13.622;2024-02-15T00:10:04;100657.69;;;10.37;59.48
68654;BME280;55636;51.108;13.622;2024-02-15T00:11:07;100662.41;;;10.36;59.34
68654;BME280;55636;51.108;13.622;2024-02-15T00:12:11;100654.38;;;10.35;59.59
68654;BME280;55636;51.108;13.622;2024-02-15T00:13:13;100662.66;;;10.35;59.66
68654;BME280;55636;51.108;13.622;2024-02-15T00:14:16;100659.88;;;10.35;59.55
68654;BME280;55636;51.108;13.622;2024-02-15T00:15:19;100657.38;;;10.33;59.69
68654;BME280;55636;51.108;13.622;2024-02-15T00:16:22;100668.44;;;10.33;59.71
68654;BME280;55636;51.108;13.622;2024-02-15T00:17:25;100675.84;;;10.33;59.54
68654;BME280;55636;51.108;13.622;2024-02-15T00:18:27;100657.66;;;10.32;59.65
68654;BME280;55636;51.108;13.622;2024-02-15T00:19:30;100670.34;;;10.33;59.58
68654;BME280;55636;51.108;13.622;2024-02-15T00:20:32;100662.31;;;10.31;59.51
68654;BME280;55636;51.108;13.622;2024-02-15T00:21:36;100667.00;;;10.31;59.66
68654;BME280;55636;51.108;13.622;2024-02-15T00:22:39;100667.00;;;10.31;59.64
68654;BME280;55636;51.108;13.622;2024-02-15T00:23:44;100658.97;;;10.29;59.55
68654;BME280;55636;51.108;13.622;2024-02-15T00:24:47;100663.41;;;10.30;59.78
68654;BME280;55636;51.108;13.622;2024-02-15T00:25:50;100658.13;;;10.29;59.64
68654;BME280;55636;51.108;13.622;2024-02-15T00:26:53;100660.06;;;10.28;59.47
68654;BME280;55636;51.108;13.622;2024-02-15T00:27:56;100661.16;;;10.27;59.61
68654;BME280;55636;51.108;13.622;2024-02-15T00:28:59;100653.94;;;10.26;59.66
68654;BME280;55636;51.108;13.622;2024-02-15T00:30:02;100667.50;;;10.28;59.69
68654;BME280;55636;51.108;13.622;2024-02-15T00:31:06;100659.22;;;10.28;59.69
68654;BME280;55636;51.108;13.622;2024-02-15T00:32:09;100660.31;;;10.27;59.72
68654;BME280;55636;51.108;13.622;2024-02-15T00:33:13;100656.72;;;10.26;59.93
68654;BME280;55636;51.108;13.622;2024-02-15T00:34:16;100653.13;;;10.26;59.80
68654;BME280;55636;51.108;13.622;2024-02-15T00:35:19;100644.84;;;10.26;59.70
68654;BME280;55636;51.108;13.622;2024-02-15T00:36:22;100652.03;;;10.27;59.67
68654;BME280;55636;51.108;13.622;2024-02-15T00:37:25;100649.75;;;10.24;59.71
68654;BME280;55636;51.108;13.622;2024-02-15T00:38:27;100656.13;;;10.24;59.84
68654;BME280;55636;51.108;13.622;2024-02-15T00:39:31;100655.03;;;10.25;59.84
68654;BME280;55636;51.108;13.622;2024-02-15T00:40:33;100656.13;;;10.24;59.93
68654;BME280;55636;51.108;13.622;2024-02-15T00:41:37;100658.63;;;10.26;60.15
68654;BME280;55636;51.108;13.622;2024-02-15T00:42:39;100660.81;;;10.24;59.91
68654;BME280;55636;51.108;13.622;2024-02-15T00:43:42;100654.47;;;10.23;59.84
68654;BME280;55636;51.108;13.622;2024-02-15T00:44:44;100655.28;;;10.24;59.88
68654;BME280;55636;51.108;13.622;2024-02-15T00:45:47;100655.28;;;10.24;59.74
68654;BME280;55636;51.108;13.622;2024-02-15T00:46:49;100650.84;;;10.23;59.91
68654;BME280;55636;51.108;13.622;2024-02-15T00:47:52;100648.09;;;10.23;59.92
68654;BME280;55636;51.108;13.622;2024-02-15T00:48:55;100648.09;;;10.23;59.94
68654;BME280;55636;51.108;13.622;2024-02-15T00:49:58;100649.75;;;10.24;60.02
68654;BME280;55636;51.108;13.622;2024-02-15T00:51:01;100647.25;;;10.22;59.88
68654;BME280;55636;51.108;13.622;2024-02-15T00:52:04;100648.09;;;10.23;60.03
68654;BME280;55636;51.108;13.622;2024-02-15T00:53:06;100640.91;;;10.22;60.03
68654;BME280;55636;51.108;13.622;2024-02-15T00:54:09;100649.19;;;10.22;60.10
68654;BME280;55636;51.108;13.622;2024-02-15T00:55:11;100651.09;;;10.21;60.06
68654;BME280;55636;51.108;13.622;2024-02-15T00:56:14;100653.84;;;10.21;60.13
68654;BME280;55636;51.108;13.622;2024-02-15T00:57:16;100645.84;;;10.19;60.16
68654;BME280;55636;51.108;13.622;2024-02-15T00:58:19;100645.84;;;10.19;60.06
68654;BME280;55636;51.108;13.622;2024-02-15T00:59:23;100655.19;;;10.18;60.08
68654;BME280;55636;51.108;13.622;2024-02-15T01:00:26;100659.63;;;10.19;60.11
68654;BME280;55636;51.108;13.622;2024-02-15T01:01:28;100654.13;;;10.19;60.14
68654;BME280;55636;51.108;13.622;2024-02-15T01:02:31;100649.94;;;10.17;60.15
68654;BME280;55636;51.108;13.622;2024-02-15T01:03:33;100651.63;;;10.18;60.08
68654;BME280;55636;51.108;13.622;2024-02-15T01:04:36;100651.88;;;10.16;60.07
68654;BME280;55636;51.108;13.622;2024-02-15T01:05:39;100657.38;;;10.16;60.18
68654;BME280;55636;51.108;13.622;2024-02-15T01:06:41;100650.97;;;10.16;60.36
68654;BME280;55636;51.108;13.622;2024-02-15T01:07:44;100645.72;;;10.14;60.22
68654;BME280;55636;51.108;13.622;2024-02-15T01:08:47;100649.31;;;10.15;60.23
68654;BME280;55636;51.108;13.622;2024-02-15T01:09:49;100650.16;;;10.15;60.17
68654;BME280;55636;51.108;13.622;2024-02-15T01:10:52;100650.41;;;10.14;60.42
68654;BME280;55636;51.108;13.622;2024-02-15T01:11:55;100649.56;;;10.13;60.34
68654;BME280;55636;51.108;13.622;2024-02-15T01:12:58;100649.56;;;10.13;60.49
68654;BME280;55636;51.108;13.622;2024-02-15T01:14:00;100652.31;;;10.13;60.35
68654;BME280;55636;51.108;13.622;2024-02-15T01:15:03;100647.06;;;10.12;60.59
68654;BME280;55636;51.108;13.622;2024-02-15T01:16:06;100645.13;;;10.12;60.46
68654;BME280;55636;51.108;13.622;2024-02-15T01:17:09;100643.22;;;10.13;60.56
68654;BME280;55636;51.108;13.622;2024-02-15T01:18:11;100645.13;;;10.12;60.47
68654;BME280;55636;51.108;13.622;2024-02-15T01:19:14;100645.97;;;10.13;60.64
68654;BME280;55636;51.108;13.622;2024-02-15T01:20:17;100647.88;;;10.12;60.55
68654;BME280;55636;51.108;13.622;2024-02-15T01:21:19;100642.34;;;10.12;60.47
68654;BME280;55636;51.108;13.622;2024-02-15T01:22:21;100647.06;;;10.12;60.75
68654;BME280;55636;51.108;13.622;2024-02-15T01:23:29;100639.84;;;10.11;60.49
68654;BME280;55636;51.108;13.622;2024-02-15T01:24:32;100642.88;;;10.09;60.40
68654;BME280;55636;51.108;13.622;2024-02-15T01:25:34;100638.44;;;10.08;60.65
68654;BME280;55636;51.108;13.622;2024-02-15T01:26:37;100632.91;;;10.08;60.67
68654;BME280;55636;51.108;13.622;2024-02-15T01:27:39;100637.59;;;10.08;60.70
68654;BME280;55636;51.108;13.622;2024-02-15T01:28:42;100639.53;;;10.07;60.67
68654;BME280;55636;51.108;13.622;2024-02-15T01:29:45;100637.59;;;10.08;60.75
68654;BME280;55636;51.108;13.622;2024-02-15T01:30:48;100634.03;;;10.07;60.77
68654;BME280;55636;51.108;13.622;2024-02-15T01:31:50;100630.75;;;10.10;60.52
68654;BME280;55636;51.108;13.622;2024-02-15T01:32:52;100635.19;;;10.11;60.83
68654;BME280;55636;51.108;13.622;2024-02-15T01:33:55;100640.97;;;10.10;60.73
68654;BME280;55636;51.108;13.622;2024-02-15T01:34:58;100635.66;;;10.08;60.73
68654;BME280;55636;51.108;13.622;2024-02-15T01:36:00;100626.56;;;10.08;60.70
68654;BME280;55636;51.108;13.622;2024-02-15T01:37:03;100634.59;;;10.09;60.92
68654;BME280;55636;51.108;13.622;2024-02-15T01:38:05;100630.16;;;10.08;60.94
68654;BME280;55636;51.108;13.622;2024-02-15T01:39:08;100632.91;;;10.08;60.90
68654;BME280;55636;51.108;13.622;2024-02-15T01:40:10;100634.03;;;10.07;60.93
68654;BME280;55636;51.108;13.622;2024-02-15T01:41:15;100628.72;;;10.06;60.91
68654;BME280;55636;51.108;13.622;2024-02-15T01:42:17;100634.84;;;10.08;60.90
68654;BME280;55636;51.108;13.622;2024-02-15T01:43:20;100634.03;;;10.07;60.86
68654;BME280;55636;51.108;13.622;2024-02-15T01:44:22;100633.16;;;10.07;60.97
68654;BME280;55636;51.108;13.622;2024-02-15T01:45:27;100626.22;;;10.04;61.14
68654;BME280;55636;51.108;13.622;2024-02-15T01:46:30;100631.50;;;10.06;61.19
68654;BME280;55636;51.108;13.622;2024-02-15T01:47:33;100637.88;;;10.06;61.17
68654;BME280;55636;51.108;13.622;2024-02-15T01:48:37;100630.41;;;10.07;61.28
68654;BME280;55636;51.108;13.622;2024-02-15T01:49:40;100626.81;;;10.06;61.26
68654;BME280;55636;51.108;13.622;2024-02-15T01:50:43;100624.06;;;10.06;61.32
68654;BME280;55636;51.108;13.622;2024-02-15T01:51:46;100627.38;;;10.08;61.42
68654;BME280;55636;51.108;13.622;2024-02-15T01:52:49;100637.34;;;10.09;61.56
68654;BME280;55636;51.108;13.622;2024-02-15T01:53:54;100636.28;;;10.10;61.58
68654;BME280;55636;51.108;13.622;2024-02-15T01:54:57;100623.53;;;10.09;61.76
68654;BME280;55636;51.108;13.622;2024-02-15T01:56:00;100626.06;;;10.11;61.70
68654;BME280;55636;51.108;13.622;2024-02-15T01:57:03;100622.47;;;10.10;61.49
68654;BME280;55636;51.108;13.622;2024-02-15T01:58:06;100637.69;;;10.13;61.47
68654;BME280;55636;51.108;13.622;2024-02-15T01:59:10;100631.31;;;10.12;61.76
68654;BME280;55636;51.108;13.622;2024-02-15T02:00:17;100631.09;;;10.14;61.71
68654;BME280;55636;51.108;13.622;2024-02-15T02:01:20;100623.63;;;10.14;61.64
68654;BME280;55636;51.108;13.622;2024-02-15T02:02:25;100628.31;;;10.14;61.59
68654;BME280;55636;51.108;13.622;2024-02-15T02:03:28;100622.81;;;10.14;61.72
68654;BME280;55636;51.108;13.622;2024-02-15T02:04:32;100625.31;;;10.15;61.86
68654;BME280;55636;51.108;13.622;2024-02-15T02:05:35;100625.09;;;10.17;61.84
68654;BME280;55636;51.108;13.622;2024-02-15T02:06:37;100625.09;;;10.17;61.78
68654;BME280;55636;51.108;13.622;2024-02-15T02:07:40;100628.44;;;10.19;61.87
68654;BME280;55636;51.108;13.622;2024-02-15T02:08:43;100625.69;;;10.19;61.82
68654;BME280;55636;51.108;13.622;2024-02-15T02:09:46;100624.56;;;10.20;62.01
68654;BME280;55636;51.108;13.622;2024-02-15T02:10:50;100631.78;;;10.21;61.92
68654;BME280;55636;51.108;13.622;2024-02-15T02:11:52;100629.63;;;10.23;62.09
68654;BME280;55636;51.108;13.622;2024-02-15T02:12:55;100620.47;;;10.23;62.02
68654;BME280;55636;51.108;13.622;2024-02-15T02:13:58;100622.16;;;10.24;62.01
68654;BME280;55636;51.108;13.622;2024-02-15T02:15:00;100620.81;;;10.26;62.03
68654;BME280;55636;51.108;13.622;2024-02-15T02:16:03;100616.16;;;10.27;62.14
68654;BME280;55636;51.108;13.622;2024-02-15T02:17:15;100628.00;;;10.27;61.84
68654;BME280;55636;51.108;13.622;2024-02-15T02:18:17;100626.06;;;10.28;61.94
68654;BME280;55636;51.108;13.622;2024-02-15T02:19:20;100628.84;;;10.28;61.92
68654;BME280;55636;51.108;13.622;2024-02-15T02:20:23;100631.13;;;10.31;61.98
68654;BME280;55636;51.108;13.622;2024-02-15T02:21:26;100622.84;;;10.31;61.88
68654;BME280;55636;51.108;13.622;2024-02-15T02:22:28;100624.50;;;10.32;62.04
68654;BME280;55636;51.108;13.622;2024-02-15T02:23:34;100622.31;;;10.34;62.04
68654;BME280;55636;51.108;13.622;2024-02-15T02:25:54;100620.97;;;10.36;61.83
68654;BME280;55636;51.108;13.622;2024-02-15T02:26:57;100612.69;;;10.36;61.91
68654;BME280;55636;51.108;13.622;2024-02-15T02:28:01;100619.63;;;10.39;61.80
68654;BME280;55636;51.108;13.622;2024-02-15T02:29:03;100625.97;;;10.40;61.76
68654;BME280;55636;51.108;13.622;2024-02-15T02:30:16;100619.13;;;10.42;61.82
68654;BME280;55636;51.108;13.622;2024-02-15T02:31:21;100626.31;;;10.43;61.77
68654;BME280;55636;51.108;13.622;2024-02-15T02:32:24;100621.66;;;10.44;61.68
68654;BME280;55636;51.108;13.622;2024-02-15T02:33:26;100625.84;;;10.46;61.59
68654;BME280;55636;51.108;13.622;2024-02-15T02:34:31;100614.78;;;10.46;61.70
68654;BME280;55636;51.108;13.622;2024-02-15T02:35:34;100617.28;;;10.48;61.51
68654;BME280;55636;51.108;13.622;2024-02-15T02:36:36;100620.88;;;10.48;61.68
68654;BME280;55636;51.108;13.622;2024-02-15T02:37:39;100619.78;;;10.49;61.72
68654;BME280;55636;51.108;13.622;2024-02-15T02:38:41;100614.84;;;10.51;61.68
68654;BME280;55636;51.108;13.622;2024-02-15T02:39:47;100617.34;;;10.53;61.72
68654;BME280;55636;51.108;13.622;2024-02-15T02:40:50;100624.78;;;10.52;61.62
68654;BME280;55636;51.108;13.622;2024-02-15T02:41:52;100619.88;;;10.55;61.67
68654;BME280;55636;51.108;13.622;2024-02-15T02:42:55;100613.25;;;10.56;61.53
68654;BME280;55636;51.108;13.622;2024-02-15T02:43:58;100625.97;;;10.57;61.47
68654;BME280;55636;51.108;13.622;2024-02-15T02:45:00;100624.03;;;10.57;61.62
68654;BME280;55636;51.108;13.622;2024-02-15T02:46:03;100619.34;;;10.58;61.56
68654;BME280;55636;51.108;13.622;2024-02-15T02:47:08;100617.44;;;10.58;61.45
68654;BME280;55636;51.108;13.622;2024-02-15T02:48:10;100619.09;;;10.59;61.38
68654;BME280;55636;51.108;13.622;2024-02-15T02:49:14;100613.56;;;10.59;61.43
68654;BME280;55636;51.108;13.622;2024-02-15T02:50:17;100619.94;;;10.60;61.51
68654;BME280;55636;51.108;13.622;2024-02-15T02:51:20;100616.09;;;10.61;61.61
68654;BME280;55636;51.108;13.622;2024-02-15T02:52:22;100622.19;;;10.63;61.51
68654;BME280;55636;51.108;13.622;2024-02-15T02:53:24;100620.28;;;10.63;61.44
68654;BME280;55636;51.108;13.622;2024-02-15T02:54:27;100623.84;;;10.64;61.28
68654;BME280;55636;51.108;13.622;2024-02-15T02:55:31;100611.72;;;10.65;61.39
68654;BME280;55636;51.108;13.622;2024-02-15T02:56:34;100618.06;;;10.65;61.31
68654;BME280;55636;51.108;13.622;2024-02-15T02:57:37;100616.16;;;10.66;61.35
68654;BME280;55636;51.108;13.622;2024-02-15T02:58:40;100615.03;;;10.67;61.24
68654;BME280;55636;51.108;13.622;2024-02-15T02:59:45;100613.97;;;10.68;61.26
68654;BME280;55636;51.108;13.622;2024-02-15T03:00:50;100622.25;;;10.68;61.32
68654;BME280;55636;51.108;13.622;2024-02-15T03:01:53;100621.44;;;10.67;61.32
68654;BME280;55636;51.108;13.622;2024-02-15T03:02:58;100619.50;;;10.68;61.10
68654;BME280;55636;51.108;13.622;2024-02-15T03:04:01;100613.97;;;10.68;61.22
68654;BME280;55636;51.108;13.622;2024-02-15T03:05:05;100614.56;;;10.70;61.09
68654;BME280;55636;51.108;13.622;2024-02-15T03:06:08;100622.84;;;10.70;61.29
68654;BME280;55636;51.108;13.622;2024-02-15T03:07:10;100623.66;;;10.70;61.25
68654;BME280;55636;51.108;13.622;2024-02-15T03:08:19;100618.75;;;10.73;60.97
68654;BME280;55636;51.108;13.622;2024-02-15T03:09:22;100613.22;;;10.73;60.88
68654;BME280;55636;51.108;13.622;2024-02-15T03:10:25;100614.88;;;10.74;60.94
68654;BME280;55636;51.108;13.622;2024-02-15T03:11:27;100613.78;;;10.75;61.11
68654;BME280;55636;51.108;13.622;2024-02-15T03:12:33;100611.88;;;10.75;61.28
68654;BME280;55636;51.108;13.622;2024-02-15T03:13:37;100612.94;;;10.74;61.03
68654;BME280;55636;51.108;13.622;2024-02-15T03:14:40;100607.41;;;10.74;61.19
68654;BME280;55636;51.108;13.622;2024-02-15T03:15:44;100606.34;;;10.75;61.13
68654;BME280;55636;51.108;13.622;2024-02-15T03:16:49;100604.41;;;10.76;61.16
68654;BME280;55636;51.108;13.622;2024-02-15T03:17:52;100609.94;;;10.76;61.05
68654;BME280;55636;51.108;13.622;2024-02-15T03:18:54;100610.78;;;10.76;60.98
68654;BME280;55636;51.108;13.622;2024-02-15T03:19:58;100616.31;;;10.76;61.06
68654;BME280;55636;51.108;13.622;2024-02-15T03:21:01;100608.84;;;10.77;61.05
68654;BME280;55636;51.108;13.622;2024-02-15T03:22:04;100612.44;;;10.77;61.02
68654;BME280;55636;51.108;13.622;2024-02-15T03:23:06;100604.13;;;10.77;61.02
68654;BME280;55636;51.108;13.622;2024-02-15T03:24:09;100609.66;;;10.77;61.15
68654;BME280;55636;51.108;13.622;2024-02-15T03:25:12;100610.53;;;10.78;61.11
68654;BME280;55636;51.108;13.622;2024-02-15T03:26:14;100605.81;;;10.78;61.22
68654;BME280;55636;51.108;13.622;2024-02-15T03:27:16;100603.06;;;10.78;61.13
68654;BME280;55636;51.108;13.622;2024-02-15T03:28:19;100608.56;;;10.78;60.98
68654;BME280;55636;51.108;13.622;2024-02-15T03:29:23;100604.72;;;10.79;60.98
68654;BME280;55636;51.108;13.622;2024-02-15T03:30:30;100606.66;;;10.79;61.24
68654;BME280;55636;51.108;13.622;2024-02-15T03:31:34;100601.16;;;10.79;61.10
68654;BME280;55636;51.108;13.622;2024-02-15T03:32:38;100604.72;;;10.79;61.04
68654;BME280;55636;51.108;13.622;2024-02-15T03:33:42;100605.56;;;10.80;61.24
68654;BME280;55636;51.108;13.622;2024-02-15T03:34:45;100604.72;;;10.79;61.29
68654;BME280;55636;51.108;13.622;2024-02-15T03:35:47;100602.78;;;10.80;61.35
68654;BME280;55636;51.108;13.622;2024-02-15T03:36:50;100607.22;;;10.81;61.30
68654;BME280;55636;51.108;13.622;2024-02-15T03:37:56;100600.88;;;10.80;61.19
68654;BME280;55636;51.108;13.622;2024-02-15T03:38:58;100598.94;;;10.81;60.96
68654;BME280;55636;51.108;13.622;2024-02-15T03:40:01;100599.75;;;10.81;61.14
68654;BME280;55636;51.108;13.622;2024-02-15T03:41:03;100602.53;;;10.81;61.04
68654;BME280;55636;51.108;13.622;2024-02-15T03:42:07;100606.16;;;10.82;61.22
68654;BME280;55636;51.108;13.622;2024-02-15T03:43:10;100604.47;;;10.81;61.29
68654;BME280;55636;51.108;13.622;2024-02-15T03:44:13;100610.81;;;10.81;61.15
68654;BME280;55636;51.108;13.622;2024-02-15T03:45:15;100608.91;;;10.82;60.94
68654;BME280;55636;51.108;13.622;2024-02-15T03:46:18;100601.44;;;10.82;61.23
68654;BME280;55636;51.108;13.622;2024-02-15T03:47:20;100609.72;;;10.82;61.16
68654;BME280;55636;51.108;13.622;2024-02-15T03:48:23;100606.97;;;10.82;60.97
68654;BME280;55636;51.108;13.622;2024-02-15T03:49:26;100612.25;;;10.84;61.10
68654;BME280;55636;51.108;13.622;2024-02-15T03:50:29;100605.88;;;10.83;60.93
68654;BME280;55636;51.108;13.622;2024-02-15T03:51:35;100606.72;;;10.84;60.91
68654;BME280;55636;51.108;13.622;2024-02-15T03:52:37;100614.19;;;10.83;60.95
68654;BME280;55636;51.108;13.622;2024-02-15T03:53:40;100616.69;;;10.85;60.82
68654;BME280;55636;51.108;13.622;2024-02-15T03:54:43;100617.28;;;10.87;60.88
68654;BME280;55636;51.108;13.622;2024-02-15T03:55:45;100614.78;;;10.85;60.85
68654;BME280;55636;51.108;13.622;2024-02-15T03:56:48;100615.59;;;10.86;60.84
68654;BME280;55636;51.108;13.622;2024-02-15T03:57:53;100615.59;;;10.86;60.95
68654;BME280;55636;51.108;13.622;2024-02-15T03:58:58;100615.59;;;10.86;60.80
68654;BME280;55636;51.108;13.622;2024-02-15T04:00:01;100613.66;;;10.86;60.93
68654;BME280;55636;51.108;13.622;2024-02-15T04:01:10;100614.50;;;10.87;61.02
68654;BME280;55636;51.108;13.622;2024-02-15T04:02:16;100617.28;;;10.87;61.00
68654;BME280;55636;51.108;13.622;2024-02-15T04:03:18;100617.28;;;10.87;60.84
68654;BME280;55636;51.108;13.622;2024-02-15T04:04:21;100613.66;;;10.86;61.07
68654;BME280;55636;51.108;13.622;2024-02-15T04:05:24;100615.31;;;10.88;61.15
68654;BME280;55636;51.108;13.622;2024-02-15T04:06:26;100609.81;;;10.88;60.95
68654;BME280;55636;51.108;13.622;2024-02-15T04:07:33;100612.56;;;10.88;61.02
68654;BME280;55636;51.108;13.622;2024-02-15T04:08:36;100616.19;;;10.88;61.03
68654;BME280;55636;51.108;13.622;2024-02-15T04:09:42;100609.81;;;10.88;60.90
68654;BME280;55636;51.108;13.622;2024-02-15T04:10:44;100617.84;;;10.89;61.17
68654;BME280;55636;51.108;13.622;2024-02-15T04:11:51;100623.34;;;10.89;60.85
68654;BME280;55636;51.108;13.622;2024-02-15T04:12:56;100618.44;;;10.91;60.80
68654;BME280;55636;51.108;13.622;2024-02-15T04:14:00;100626.13;;;10.89;61.08
68654;BME280;55636;51.108;13.622;2024-02-15T04:15:04;100622.53;;;10.89;60.82
68654;BME280;55636;51.108;13.622;2024-02-15T04:16:15;100626.97;;;10.90;61.05
68654;BME280;55636;51.108;13.622;2024-02-15T04:17:18;100628.88;;;10.89;61.12
68654;BME280;55636;51.108;13.622;2024-02-15T04:18:24;100623.34;;;10.89;61.13
68654;BME280;55636;51.108;13.622;2024-02-15T04:19:26;100629.75;;;10.90;61.03
68654;BME280;55636;51.108;13.622;2024-02-15T04:20:29;100618.94;;;10.88;60.96
68654;BME280;55636;51.108;13.622;2024-02-15T04:21:31;100619.78;;;10.89;61.02
68654;BME280;55636;51.108;13.622;2024-02-15T04:22:34;100620.59;;;10.89;60.80
68654;BME280;55636;51.108;13.622;2024-02-15T04:23:40;100622.53;;;10.89;60.64
68654;BME280;55636;51.108;13.622;2024-02-15T04:24:43;100621.72;;;10.88;60.93
68654;BME280;55636;51.108;13.622;2024-02-15T04:25:47;100626.38;;;10.88;61.00
68654;BME280;55636;51.108;13.622;2024-02-15T04:26:53;100620.84;;;10.88;60.98
68654;BME280;55636;51.108;13.622;2024-02-15T04:27:56;100620.03;;;10.87;60.95
68654;BME280;55636;51.108;13.622;2024-02-15T04:29:00;100618.94;;;10.88;60.95
68654;BME280;55636;51.108;13.622;2024-02-15T04:30:03;100618.09;;;10.88;60.87
68654;BME280;55636;51.108;13.622;2024-02-15T04:31:05;100611.16;;;10.85;60.93
68654;BME280;55636;51.108;13.622;2024-02-15T04:32:10;100623.88;;;10.86;61.00
68654;BME280;55636;51.108;13.622;2024-02-15T04:33:14;100623.06;;;10.85;61.09
68654;BME280;55636;51.108;13.622;2024-02-15T04:34:18;100621.38;;;10.84;60.73
68654;BME280;55636;51.108;13.622;2024-02-15T04:35:21;100620.28;;;10.85;60.78
68654;BME280;55636;51.108;13.622;2024-02-15T04:36:24;100623.88;;;10.86;60.79
68654;BME280;55636;51.108;13.622;2024-02-15T04:37:27;100620.53;;;10.84;60.90
68654;BME280;55636;51.108;13.622;2024-02-15T04:38:31;100615.84;;;10.84;60.79
68654;BME280;55636;51.108;13.622;2024-02-15T04:39:34;100620.53;;;10.84;60.92
68654;BME280;55636;51.108;13.622;2024-02-15T04:40:38;100626.91;;;10.84;60.83
68654;BME280;55636;51.108;13.622;2024-02-15T04:41:41;100617.75;;;10.84;60.85
68654;BME280;55636;51.108;13.622;2024-02-15T04:42:44;100618.03;;;10.82;60.87
68654;BME280;55636;51.108;13.622;2024-02-15T04:43:47;100616.13;;;10.83;60.91
68654;BME280;55636;51.108;13.622;2024-02-15T04:44:50;100619.69;;;10.83;60.86
68654;BME280;55636;51.108;13.622;2024-02-15T04:45:56;100625.22;;;10.83;60.87
68654;BME280;55636;51.108;13.622;2024-02-15T04:46:58;100629.06;;;10.82;60.82
68654;BME280;55636;51.108;13.622;2024-02-15T04:48:01;100625.50;;;10.82;60.85
68654;BME280;55636;51.108;13.622;2024-02-15T04:49:06;100623.56;;;10.82;61.04
68654;BME280;55636;51.108;13.622;2024-02-15T04:50:10;100628.25;;;10.82;60.87
68654;BME280;55636;51.108;13.622;2024-02-15T04:51:13;100628.81;;;10.84;60.80
68654;BME280;55636;51.108;13.622;2024-02-15T04:52:15;100618.03;;;10.82;61.04
68654;BME280;55636;51.108;13.622;2024-02-15T04:53:19;100629.06;;;10.82;60.96
68654;BME280;55636;51.108;13.622;2024-02-15T04:54:22;100620.78;;;10.82;61.15
68654;BME280;55636;51.108;13.622;2024-02-15T04:55:24;100631.84;;;10.82;61.10
68654;BME280;55636;51.108;13.622;2024-02-15T04:56:28;100626.31;;;10.82;61.17
68654;BME280;55636;51.108;13.622;2024-02-15T04:57:31;100628.25;;;10.82;60.93
68654;BME280;55636;51.108;13.622;2024-02-15T04:58:35;100634.59;;;10.82;61.04
68654;BME280;55636;51.108;13.622;2024-02-15T04:59:39;100632.44;;;10.84;61.06
68654;BME280;55636;51.108;13.622;2024-02-15T05:00:41;100632.69;;;10.83;60.79
68654;BME280;55636;51.108;13.622;2024-02-15T05:01:44;100636.28;;;10.83;61.00
68654;BME280;55636;51.108;13.622;2024-02-15T05:02:47;100632.44;;;10.84;61.08
68654;BME280;55636;51.108;13.622;2024-02-15T05:03:52;100632.44;;;10.84;61.06
68654;BME280;55636;51.108;13.622;2024-02-15T05:04:54;100625.22;;;10.83;61.04
68654;BME280;55636;51.108;13.622;2024-02-15T05:05:59;100629.66;;;10.84;61.03
68654;BME280;55636;51.108;13.622;2024-02-15T05:07:01;100627.72;;;10.85;61.06
68654;BME280;55636;51.108;13.622;2024-02-15T05:08:05;100623.28;;;10.84;61.01
68654;BME280;55636;51.108;13.622;2024-02-15T05:09:08;100632.44;;;10.84;61.10
68654;BME280;55636;51.108;13.622;2024-02-15T05:10:13;100629.66;;;10.84;60.92
68654;BME280;55636;51.108;13.622;2024-02-15T05:11:16;100622.47;;;10.83;61.00
68654;BME280;55636;51.108;13.622;2024-02-15T05:12:23;100629.66;;;10.84;60.85
68654;BME280;55636;51.108;13.622;2024-02-15T05:13:26;100625.22;;;10.83;61.04
68654;BME280;55636;51.108;13.622;2024-02-15T05:14:31;100632.44;;;10.84;60.94
68654;BME280;55636;51.108;13.622;2024-02-15T05:15:33;100632.44;;;10.84;61.09
68654;BME280;55636;51.108;13.622;2024-02-15T05:16:36;100628.00;;;10.83;61.07
68654;BME280;55636;51.108;13.622;2024-02-15T05:17:45;100634.34;;;10.84;61.15
68654;BME280;55636;51.108;13.622;2024-02-15T05:18:47;100636.88;;;10.85;61.02
68654;BME280;55636;51.108;13.622;2024-02-15T05:19:51;100636.03;;;10.85;61.17
68654;BME280;55636;51.108;13.622;2024-02-15T05:20:53;100637.97;;;10.84;61.00
68654;BME280;55636;51.108;13.622;2024-02-15T05:21:56;100642.63;;;10.84;61.20
68654;BME280;55636;51.108;13.622;2024-02-15T05:22:58;100635.19;;;10.84;61.16
68654;BME280;55636;51.108;13.622;2024-02-15T05:24:01;100645.41;;;10.84;61.07
68654;BME280;55636;51.108;13.622;2024-02-15T05:25:08;100643.50;;;10.84;61.05
68654;BME280;55636;51.108;13.622;2024-02-15T05:26:11;100642.63;;;10.84;61.34
68654;BME280;55636;51.108;13.622;2024-02-15T05:27:14;100637.09;;;10.84;61.16
68654;BME280;55636;51.108;13.622;2024-02-15T05:28:18;100633.25;;;10.85;61.10